createdAt,value
2022-09-16T00:00:03.449Z,15.06
2022-09-16T00:01:03.448Z,15.06
2022-09-16T00:01:43.528Z,15.03
2022-09-16T00:02:23.410Z,15.07
2022-09-16T00:03:11.426Z,15.07
2022-09-16T00:03:45.603Z,15.08
2022-09-16T00:04:32.373Z,15.05
2022-09-16T00:05:06.945Z,15.01
2022-09-16T00:05:59.366Z,14.98
2022-09-16T00:06:33.092Z,15.04
2022-09-16T00:07:20.383Z,15.12
2022-09-16T00:07:55.680Z,15.11
2022-09-16T00:08:36.441Z,15.03
2022-09-16T00:09:10.426Z,15.03
2022-09-16T00:09:44.077Z,15.06
2022-09-16T00:10:25.362Z,15.12
2022-09-16T00:10:59.410Z,15.02
2022-09-16T00:11:36.935Z,15.01
2022-09-16T00:12:18.361Z,15.02
2022-09-16T00:12:59.483Z,15.06
2022-09-16T00:13:39.436Z,15.01
2022-09-16T00:14:20.513Z,15.07
2022-09-16T00:15:01.361Z,15.06
2022-09-16T00:15:41.516Z,15.09
2022-09-16T00:16:31.456Z,14.96
2022-09-16T00:17:11.428Z,14.94
2022-09-16T00:17:51.446Z,15.07
2022-09-16T00:18:31.451Z,15.07
2022-09-16T00:19:11.400Z,15.11
2022-09-16T00:19:52.726Z,15.04
2022-09-16T00:20:34.398Z,15.09
2022-09-16T00:21:16.470Z,15.08
2022-09-16T00:21:56.392Z,15.09
2022-09-16T00:22:37.459Z,15.10
2022-09-16T00:23:18.362Z,15.16
2022-09-16T00:23:58.430Z,15.20
2022-09-16T00:24:38.366Z,15.25
2022-09-16T00:25:19.426Z,15.15
2022-09-16T00:26:01.406Z,15.23
2022-09-16T00:26:41.442Z,15.20
2022-09-16T00:27:21.362Z,15.09
2022-09-16T00:28:01.566Z,15.11
2022-09-16T00:28:41.333Z,15.13
2022-09-16T00:29:21.377Z,15.09
2022-09-16T00:30:01.405Z,15.17
2022-09-16T00:30:42.494Z,15.10
2022-09-16T00:31:23.385Z,15.02
2022-09-16T00:32:03.413Z,15.02
2022-09-16T00:32:43.591Z,14.94
2022-09-16T00:33:24.425Z,14.88
2022-09-16T00:34:04.365Z,14.91
2022-09-16T00:34:44.469Z,14.91
2022-09-16T00:35:24.390Z,14.89
2022-09-16T00:36:20.437Z,14.91
2022-09-16T00:37:00.359Z,14.88
2022-09-16T00:37:40.432Z,15.01
2022-09-16T00:38:20.323Z,14.99
2022-09-16T00:39:01.427Z,14.93
2022-09-16T00:39:43.332Z,14.92
2022-09-16T00:40:23.464Z,14.84
2022-09-16T00:41:03.370Z,14.97
2022-09-16T00:41:44.406Z,14.97
2022-09-16T00:42:25.334Z,15.00
2022-09-16T00:43:06.387Z,14.99
2022-09-16T00:44:09.332Z,14.93
2022-09-16T00:45:09.365Z,14.85
2022-09-16T00:45:53.394Z,14.66
2022-09-16T00:46:41.444Z,14.81
2022-09-16T00:47:15.474Z,14.77
2022-09-16T00:47:56.256Z,14.59
2022-09-16T00:48:37.471Z,14.64
2022-09-16T00:49:22.456Z,14.72
2022-09-16T00:50:01.495Z,14.65
2022-09-16T00:50:53.389Z,14.61
2022-09-16T00:51:27.428Z,14.69
2022-09-16T00:52:10.378Z,14.65
2022-09-16T00:52:51.456Z,14.59
2022-09-16T00:53:40.706Z,14.60
2022-09-16T00:54:23.421Z,14.51
2022-09-16T00:55:03.298Z,14.60
2022-09-16T00:55:44.435Z,14.59
2022-09-16T00:56:26.341Z,14.60
2022-09-16T00:57:07.474Z,14.58
2022-09-16T00:57:48.357Z,14.67
2022-09-16T00:59:02.204Z,14.69
2022-09-16T00:59:46.330Z,14.70
2022-09-16T01:00:27.443Z,14.71
2022-09-16T01:01:08.396Z,14.67
2022-09-16T01:01:49.625Z,14.66
2022-09-16T01:02:36.336Z,14.58
2022-09-16T01:03:18.352Z,14.54
2022-09-16T01:04:33.291Z,14.56
2022-09-16T01:05:34.330Z,14.65
2022-09-16T01:06:29.329Z,14.61
2022-09-16T01:07:23.319Z,14.56
2022-09-16T01:08:18.436Z,14.64
2022-09-16T01:09:12.308Z,14.56
2022-09-16T01:10:06.319Z,14.57
2022-09-16T01:11:00.291Z,14.69
2022-09-16T01:11:54.371Z,14.74
2022-09-16T01:12:49.318Z,14.65
2022-09-16T01:13:36.386Z,14.66
2022-09-16T01:14:29.975Z,14.72
2022-09-16T01:15:18.316Z,14.76
2022-09-16T01:16:13.512Z,14.64
2022-09-16T01:17:43.330Z,14.83
2022-09-16T01:18:53.358Z,14.74
2022-09-16T01:20:31.299Z,14.84
2022-09-16T01:21:31.287Z,14.76
2022-09-16T01:23:02.356Z,14.81
2022-09-16T01:24:48.358Z,14.77
2022-09-16T01:26:20.304Z,14.66
2022-09-16T01:27:39.339Z,14.75
2022-09-16T01:29:02.313Z,14.68
2022-09-16T01:30:52.415Z,14.63
2022-09-16T01:31:51.355Z,14.55
2022-09-16T01:33:16.395Z,14.52
2022-09-16T01:34:33.328Z,14.55
2022-09-16T01:35:52.383Z,14.55
2022-09-16T01:37:19.338Z,14.57
2022-09-16T01:38:54.386Z,14.65
2022-09-16T01:40:28.425Z,14.70
2022-09-16T01:41:41.330Z,14.66
2022-09-16T01:42:50.394Z,14.58
2022-09-16T01:44:01.327Z,14.62
2022-09-16T01:45:17.505Z,14.54
2022-09-16T01:46:11.384Z,14.57
2022-09-16T01:47:05.296Z,14.47
2022-09-16T01:47:56.196Z,14.60
2022-09-16T01:49:05.299Z,14.71
2022-09-16T01:50:07.147Z,14.68
2022-09-16T01:51:24.285Z,14.56
2022-09-16T01:52:40.387Z,14.65
2022-09-16T01:53:43.355Z,14.46
2022-09-16T01:54:39.260Z,14.59
2022-09-16T01:55:46.325Z,14.53
2022-09-16T01:56:36.230Z,14.52
2022-09-16T01:57:28.423Z,14.49
2022-09-16T01:58:40.292Z,14.49
2022-09-16T01:59:28.336Z,14.55
2022-09-16T02:00:21.240Z,14.51
2022-09-16T02:01:11.348Z,14.27
2022-09-16T02:02:07.451Z,14.43
2022-09-16T02:03:02.514Z,14.35
2022-09-16T02:03:46.295Z,14.36
2022-09-16T02:04:53.315Z,14.35
2022-09-16T02:05:56.268Z,14.31
2022-09-16T02:06:37.313Z,14.32
2022-09-16T02:07:18.254Z,14.26
2022-09-16T02:08:08.320Z,14.28
2022-09-16T02:09:09.278Z,14.21
2022-09-16T02:09:58.354Z,14.09
2022-09-16T02:10:48.320Z,14.22
2022-09-16T02:11:29.442Z,14.09
2022-09-16T02:12:15.272Z,14.26
2022-09-16T02:12:58.327Z,14.11
2022-09-16T02:13:47.323Z,14.19
2022-09-16T02:14:42.265Z,14.25
2022-09-16T02:15:22.013Z,14.23
2022-09-16T02:16:36.260Z,14.14
2022-09-16T02:17:13.265Z,14.15
2022-09-16T02:18:08.244Z,14.18
2022-09-16T02:18:42.668Z,14.22
2022-09-16T02:19:40.245Z,13.99
2022-09-16T02:20:25.225Z,14.17
2022-09-16T02:21:06.317Z,14.13
2022-09-16T02:21:48.265Z,14.01
2022-09-16T02:22:51.304Z,14.16
2022-09-16T02:23:46.261Z,14.08
2022-09-16T02:24:28.299Z,14.09
2022-09-16T02:25:10.292Z,14.09
2022-09-16T02:25:53.287Z,14.02
2022-09-16T02:26:37.231Z,14.20
2022-09-16T02:27:23.414Z,14.12
2022-09-16T02:28:04.313Z,14.14
2022-09-16T02:28:49.330Z,14.05
2022-09-16T02:29:34.265Z,14.14
2022-09-16T02:30:26.319Z,14.00
2022-09-16T02:31:03.617Z,14.01
2022-09-16T02:31:55.585Z,13.96
2022-09-16T02:32:32.541Z,14.03
2022-09-16T02:33:21.407Z,13.99
2022-09-16T02:34:00.663Z,13.93
2022-09-16T02:34:56.213Z,14.03
2022-09-16T02:35:45.330Z,14.09
2022-09-16T02:36:22.336Z,14.01
2022-09-16T02:37:20.289Z,14.03
2022-09-16T02:38:08.272Z,14.13
2022-09-16T02:39:00.233Z,14.07
2022-09-16T02:39:39.424Z,14.01
2022-09-16T02:41:04.247Z,14.12
2022-09-16T02:41:38.261Z,14.11
2022-09-16T02:42:25.205Z,14.07
2022-09-16T02:42:59.290Z,13.94
2022-09-16T02:43:47.322Z,14.08
2022-09-16T02:44:21.276Z,14.05
2022-09-16T02:45:09.261Z,14.11
2022-09-16T02:46:16.324Z,14.16
2022-09-16T02:47:38.205Z,14.16
2022-09-16T02:49:07.249Z,14.14
2022-09-16T02:50:08.257Z,14.12
2022-09-16T02:51:32.320Z,14.02
2022-09-16T02:52:47.210Z,14.04
2022-09-16T02:54:33.188Z,14.13
2022-09-16T02:55:47.220Z,14.06
2022-09-16T02:56:52.291Z,14.08
2022-09-16T02:57:46.185Z,14.16
2022-09-16T02:58:40.180Z,14.16
2022-09-16T02:59:35.199Z,14.14
2022-09-16T03:00:29.213Z,14.07
2022-09-16T03:01:25.220Z,14.07
2022-09-16T03:02:12.280Z,14.01
2022-09-16T03:02:46.355Z,13.96
2022-09-16T03:03:33.204Z,13.97
2022-09-16T03:04:07.268Z,13.92
2022-09-16T03:04:54.214Z,14.02
2022-09-16T03:05:35.265Z,14.07
2022-09-16T03:06:27.206Z,14.03
2022-09-16T03:07:01.415Z,14.03
2022-09-16T03:07:43.275Z,14.06
2022-09-16T03:08:23.332Z,14.03
2022-09-16T03:09:06.234Z,14.13
2022-09-16T03:09:50.264Z,14.14
2022-09-16T03:10:35.184Z,14.02
2022-09-16T03:11:41.321Z,14.05
2022-09-16T03:12:47.217Z,14.14
2022-09-16T03:13:44.271Z,14.04
2022-09-16T03:14:45.201Z,14.09
2022-09-16T03:15:47.295Z,14.14
2022-09-16T03:16:56.205Z,14.17
2022-09-16T03:18:01.225Z,14.06
2022-09-16T03:19:19.202Z,14.07
2022-09-16T03:20:36.212Z,14.03
2022-09-16T03:22:06.219Z,14.00
2022-09-16T03:23:33.223Z,14.07
2022-09-16T03:25:03.173Z,14.08
2022-09-16T03:26:23.163Z,14.12
2022-09-16T03:27:36.187Z,14.12
2022-09-16T03:28:36.218Z,14.16
2022-09-16T03:29:47.202Z,14.04
2022-09-16T03:30:47.240Z,14.17
2022-09-16T03:31:46.259Z,13.96
2022-09-16T03:32:46.246Z,14.13
2022-09-16T03:33:56.211Z,14.20
2022-09-16T03:35:07.175Z,14.16
2022-09-16T03:36:02.201Z,14.19
2022-09-16T03:37:06.169Z,14.20
2022-09-16T03:38:00.148Z,14.24
2022-09-16T03:38:55.265Z,14.26
2022-09-16T03:39:36.186Z,14.28
2022-09-16T03:40:19.343Z,14.19
2022-09-16T03:41:00.247Z,14.35
2022-09-16T03:41:41.283Z,14.16
2022-09-16T03:42:21.173Z,14.12
2022-09-16T03:43:01.240Z,14.29
2022-09-16T03:43:42.138Z,14.20
2022-09-16T03:44:22.173Z,14.14
2022-09-16T03:44:56.243Z,14.18
2022-09-16T03:45:43.199Z,14.20
2022-09-16T03:46:18.266Z,14.18
2022-09-16T03:47:05.144Z,14.16
2022-09-16T03:47:39.297Z,14.06
2022-09-16T03:48:26.173Z,14.20
2022-09-16T03:49:00.315Z,14.23
2022-09-16T03:49:47.173Z,14.27
2022-09-16T03:50:21.233Z,14.37
2022-09-16T03:51:08.145Z,14.35
2022-09-16T03:51:42.212Z,14.35
2022-09-16T03:52:29.146Z,14.33
2022-09-16T03:53:03.212Z,14.36
2022-09-16T03:53:50.341Z,14.31
2022-09-16T03:54:24.216Z,14.34
2022-09-16T03:55:12.216Z,14.31
2022-09-16T03:55:46.833Z,14.34
2022-09-16T03:56:34.224Z,14.34
2022-09-16T03:57:08.204Z,14.30
2022-09-16T03:57:55.139Z,14.32
2022-09-16T03:58:29.220Z,14.39
2022-09-16T03:59:16.149Z,14.32
2022-09-16T03:59:50.204Z,14.30
2022-09-16T04:00:37.209Z,14.29
2022-09-16T04:01:11.233Z,14.35
2022-09-16T04:01:58.227Z,14.20
2022-09-16T04:02:32.295Z,14.17
2022-09-16T04:03:19.132Z,14.08
2022-09-16T04:03:53.349Z,14.23
2022-09-16T04:04:40.124Z,14.15
2022-09-16T04:05:15.243Z,14.16
2022-09-16T04:06:03.349Z,14.23
2022-09-16T04:06:37.184Z,14.15
2022-09-16T04:07:24.167Z,14.00
2022-09-16T04:07:58.219Z,14.21
2022-09-16T04:08:46.227Z,14.06
2022-09-16T04:09:20.277Z,14.19
2022-09-16T04:10:08.177Z,14.07
2022-09-16T04:10:42.178Z,14.19
2022-09-16T04:11:23.157Z,14.09
2022-09-16T04:12:03.388Z,14.11
2022-09-16T04:12:43.175Z,14.07
2022-09-16T04:13:23.226Z,14.07
2022-09-16T04:14:03.130Z,14.15
2022-09-16T04:14:43.279Z,14.07
2022-09-16T04:15:23.205Z,13.90
2022-09-16T04:16:03.550Z,14.05
2022-09-16T04:16:45.373Z,14.04
2022-09-16T04:17:26.235Z,13.99
2022-09-16T04:18:07.108Z,13.99
2022-09-16T04:18:47.226Z,13.98
2022-09-16T04:19:28.110Z,14.03
2022-09-16T04:20:08.281Z,14.00
2022-09-16T04:20:49.122Z,14.00
2022-09-16T04:21:29.423Z,13.99
2022-09-16T04:22:09.200Z,14.07
2022-09-16T04:22:49.239Z,14.03
2022-09-16T04:23:32.133Z,13.91
2022-09-16T04:24:13.691Z,14.03
2022-09-16T04:24:55.145Z,14.05
2022-09-16T04:25:35.203Z,14.01
2022-09-16T04:26:17.107Z,14.08
2022-09-16T04:26:57.211Z,14.08
2022-09-16T04:27:37.162Z,13.93
2022-09-16T04:28:17.168Z,13.94
2022-09-16T04:29:01.097Z,13.95
2022-09-16T04:29:41.226Z,13.86
2022-09-16T04:30:22.096Z,13.88
2022-09-16T04:31:07.180Z,13.93
2022-09-16T04:31:47.097Z,13.83
2022-09-16T04:32:27.177Z,13.90
2022-09-16T04:33:07.148Z,13.94
2022-09-16T04:33:48.252Z,14.02
2022-09-16T04:34:28.117Z,14.06
2022-09-16T04:35:08.169Z,14.05
2022-09-16T04:35:48.097Z,13.97
2022-09-16T04:36:28.171Z,14.07
2022-09-16T04:37:08.097Z,14.08
2022-09-16T04:37:48.178Z,14.11
2022-09-16T04:38:29.115Z,14.02
2022-09-16T04:39:09.148Z,14.13
2022-09-16T04:39:49.143Z,13.92
2022-09-16T04:40:29.313Z,13.92
2022-09-16T04:41:13.129Z,14.00
2022-09-16T04:41:54.200Z,14.04
2022-09-16T04:42:34.102Z,13.99
2022-09-16T04:43:14.150Z,13.95
2022-09-16T04:44:05.224Z,13.92
2022-09-16T04:44:46.151Z,13.99
2022-09-16T04:45:27.094Z,14.00
2022-09-16T04:46:08.631Z,13.93
2022-09-16T04:46:48.110Z,13.93
2022-09-16T04:47:29.127Z,13.88
2022-09-16T04:48:10.109Z,13.87
2022-09-16T04:48:50.164Z,13.84
2022-09-16T04:49:30.129Z,13.89
2022-09-16T04:50:10.730Z,13.92
2022-09-16T04:50:51.099Z,14.03
2022-09-16T04:51:33.250Z,13.93
2022-09-16T04:52:13.075Z,13.92
2022-09-16T04:52:53.224Z,13.84
2022-09-16T04:53:34.171Z,13.74
2022-09-16T04:54:14.212Z,13.80
2022-09-16T04:54:54.126Z,13.86
2022-09-16T04:55:34.241Z,13.87
2022-09-16T04:56:23.104Z,13.77
2022-09-16T04:57:03.165Z,13.81
2022-09-16T04:57:44.082Z,13.86
2022-09-16T04:58:24.162Z,13.78
2022-09-16T04:59:10.177Z,13.81
2022-09-16T04:59:51.156Z,13.81
2022-09-16T05:00:32.201Z,13.79
2022-09-16T05:01:18.263Z,13.81
2022-09-16T05:01:59.107Z,13.80
2022-09-16T05:02:39.192Z,13.76
2022-09-16T05:03:19.115Z,13.81
2022-09-16T05:04:02.388Z,13.89
2022-09-16T05:04:43.063Z,13.95
2022-09-16T05:05:23.830Z,13.84
2022-09-16T05:06:15.953Z,13.69
2022-09-16T05:06:59.314Z,13.69
2022-09-16T05:07:39.145Z,13.68
2022-09-16T05:08:19.155Z,13.76
2022-09-16T05:09:01.114Z,13.74
2022-09-16T05:09:41.233Z,13.63
2022-09-16T05:10:22.059Z,13.67
2022-09-16T05:11:02.242Z,13.62
2022-09-16T05:11:45.149Z,13.69
2022-09-16T05:12:25.190Z,13.70
2022-09-16T05:13:05.086Z,13.74
2022-09-16T05:13:46.188Z,13.68
2022-09-16T05:14:27.084Z,13.78
2022-09-16T05:15:07.751Z,13.85
2022-09-16T05:15:51.239Z,13.76
2022-09-16T05:16:31.240Z,13.81
2022-09-16T05:17:11.129Z,13.85
2022-09-16T05:17:51.831Z,13.81
2022-09-16T05:18:33.070Z,13.78
2022-09-16T05:19:13.202Z,13.78
2022-09-16T05:19:54.077Z,13.91
2022-09-16T05:20:34.130Z,13.94
2022-09-16T05:21:18.061Z,13.90
2022-09-16T05:21:58.165Z,13.91
2022-09-16T05:22:38.092Z,13.90
2022-09-16T05:23:18.192Z,13.92
2022-09-16T05:24:00.130Z,13.90
2022-09-16T05:24:44.481Z,13.89
2022-09-16T05:25:25.076Z,13.91
2022-09-16T05:26:12.210Z,13.92
2022-09-16T05:26:53.077Z,14.01
2022-09-16T05:27:36.205Z,14.02
2022-09-16T05:28:17.080Z,13.97
2022-09-16T05:28:57.100Z,14.01
2022-09-16T05:29:37.040Z,14.03
2022-09-16T05:30:20.688Z,14.03
2022-09-16T05:31:17.088Z,13.97
2022-09-16T05:31:57.970Z,14.06
2022-09-16T05:32:39.117Z,14.07
2022-09-16T05:33:26.088Z,14.14
2022-09-16T05:34:35.106Z,14.20
2022-09-16T05:35:29.052Z,14.20
2022-09-16T05:36:27.048Z,14.25
2022-09-16T05:37:21.040Z,14.23
2022-09-16T05:38:15.060Z,14.23
2022-09-16T05:39:21.046Z,14.29
2022-09-16T05:39:55.425Z,14.27
2022-09-16T05:40:36.040Z,14.27
2022-09-16T05:41:16.285Z,14.27
2022-09-16T05:42:00.069Z,14.21
2022-09-16T05:42:40.168Z,14.18
2022-09-16T05:43:21.155Z,14.24
2022-09-16T05:44:08.143Z,14.27
2022-09-16T05:45:02.085Z,14.23
2022-09-16T05:45:56.095Z,14.26
2022-09-16T05:46:50.074Z,14.31
2022-09-16T05:47:44.064Z,14.31
2022-09-16T05:48:39.033Z,14.21
2022-09-16T05:49:27.075Z,14.20
2022-09-16T05:50:01.077Z,14.24
2022-09-16T05:50:48.099Z,14.25
2022-09-16T05:51:24.126Z,14.22
2022-09-16T05:52:11.054Z,14.23
2022-09-16T05:52:45.110Z,14.25
2022-09-16T05:53:34.053Z,14.30
2022-09-16T05:54:08.166Z,14.36
2022-09-16T05:54:48.052Z,14.31
2022-09-16T05:55:28.139Z,14.26
2022-09-16T05:56:15.038Z,14.25
2022-09-16T05:56:55.083Z,14.27
2022-09-16T05:57:35.021Z,14.29
2022-09-16T05:58:15.125Z,14.25
2022-09-16T05:58:57.025Z,14.05
2022-09-16T05:59:37.106Z,14.25
2022-09-16T06:00:19.105Z,14.26
2022-09-16T06:01:11.277Z,14.33
2022-09-16T06:01:52.085Z,14.32
2022-09-16T06:02:32.185Z,14.33
2022-09-16T06:03:15.036Z,14.34
2022-09-16T06:03:57.148Z,14.25
2022-09-16T06:04:38.037Z,14.15
2022-09-16T06:05:18.277Z,14.13
2022-09-16T06:05:58.069Z,14.06
2022-09-16T06:06:44.203Z,14.08
2022-09-16T06:07:24.069Z,14.17
2022-09-16T06:08:04.081Z,14.17
2022-09-16T06:08:45.023Z,14.23
2022-09-16T06:09:28.365Z,14.36
2022-09-16T06:10:09.023Z,14.31
2022-09-16T06:10:50.161Z,14.24
2022-09-16T06:11:31.071Z,14.36
2022-09-16T06:12:12.167Z,14.38
2022-09-16T06:12:53.130Z,14.31
2022-09-16T06:13:33.205Z,14.33
2022-09-16T06:14:14.009Z,14.26
2022-09-16T06:14:54.071Z,14.27
2022-09-16T06:15:35.071Z,14.32
2022-09-16T06:16:17.802Z,14.34
2022-09-16T06:16:58.034Z,14.25
2022-09-16T06:17:38.081Z,14.36
2022-09-16T06:18:22.022Z,14.27
2022-09-16T06:19:03.117Z,14.26
2022-09-16T06:19:44.013Z,14.32
2022-09-16T06:20:24.124Z,14.40
2022-09-16T06:21:05.001Z,14.41
2022-09-16T06:21:45.130Z,14.45
2022-09-16T06:22:25.058Z,14.44
2022-09-16T06:23:05.071Z,14.43
2022-09-16T06:23:46.027Z,14.42
2022-09-16T06:24:27.217Z,14.45
2022-09-16T06:25:07.045Z,14.42
2022-09-16T06:25:47.491Z,14.46
2022-09-16T06:26:33.006Z,14.44
2022-09-16T06:27:13.065Z,14.48
2022-09-16T06:27:54.052Z,14.42
2022-09-16T06:28:34.161Z,14.44
2022-09-16T06:29:15.019Z,14.44
2022-09-16T06:29:55.055Z,14.48
2022-09-16T06:30:36.079Z,14.47
2022-09-16T06:31:23.143Z,14.51
2022-09-16T06:32:04.022Z,14.53
2022-09-16T06:32:44.126Z,14.54
2022-09-16T06:33:24.049Z,14.63
2022-09-16T06:34:05.528Z,14.63
2022-09-16T06:34:44.989Z,14.54
2022-09-16T06:35:25.077Z,14.50
2022-09-16T06:36:09.976Z,14.51
2022-09-16T06:36:50.114Z,14.60
2022-09-16T06:37:31.032Z,14.61
2022-09-16T06:38:11.072Z,14.57
2022-09-16T06:38:53.030Z,14.42
2022-09-16T06:39:34.078Z,14.48
2022-09-16T06:40:15.073Z,14.54
2022-09-16T06:40:55.037Z,14.66
2022-09-16T06:41:36.989Z,14.56
2022-09-16T06:42:17.074Z,14.60
2022-09-16T06:43:03.063Z,14.63
2022-09-16T06:43:44.378Z,14.62
2022-09-16T06:44:24.260Z,14.66
2022-09-16T06:45:04.300Z,14.69
2022-09-16T06:45:44.049Z,14.72
2022-09-16T06:46:28.265Z,14.72
2022-09-16T06:47:07.993Z,14.78
2022-09-16T06:47:48.128Z,14.64
2022-09-16T06:48:28.976Z,14.63
2022-09-16T06:49:11.083Z,14.59
2022-09-16T06:49:53.019Z,14.69
2022-09-16T06:50:33.063Z,14.59
2022-09-16T06:51:17.986Z,14.74
2022-09-16T06:51:58.075Z,14.75
2022-09-16T06:52:38.993Z,14.72
2022-09-16T06:53:19.081Z,14.76
2022-09-16T06:54:03.451Z,14.74
2022-09-16T06:54:44.100Z,14.67
2022-09-16T06:55:24.001Z,14.71
2022-09-16T06:56:14.103Z,14.78
2022-09-16T06:56:53.985Z,14.80
2022-09-16T06:57:34.062Z,14.74
2022-09-16T06:58:13.990Z,14.68
2022-09-16T06:58:58.107Z,14.77
2022-09-16T06:59:38.985Z,14.76
2022-09-16T07:00:20.077Z,14.76
2022-09-16T07:01:00.111Z,14.69
2022-09-16T07:01:41.127Z,14.79
2022-09-16T07:02:21.021Z,14.78
2022-09-16T07:03:02.041Z,14.81
2022-09-16T07:03:48.064Z,14.82
2022-09-16T07:04:28.105Z,14.74
2022-09-16T07:05:08.969Z,14.78
2022-09-16T07:05:49.032Z,14.78
2022-09-16T07:06:58.305Z,14.83
2022-09-16T07:07:32.033Z,14.88
2022-09-16T07:08:12.974Z,14.80
2022-09-16T07:08:54.025Z,14.79
2022-09-16T07:09:34.982Z,14.73
2022-09-16T07:10:16.093Z,14.54
2022-09-16T07:11:07.991Z,14.54
2022-09-16T07:11:48.014Z,14.59
2022-09-16T07:12:22.255Z,14.66
2022-09-16T07:13:10.007Z,14.63
2022-09-16T07:13:44.014Z,14.66
2022-09-16T07:14:31.956Z,14.63
2022-09-16T07:15:06.012Z,14.69
2022-09-16T07:16:16.514Z,14.74
2022-09-16T07:16:47.144Z,14.81
2022-09-16T07:17:29.997Z,14.86
2022-09-16T07:18:10.282Z,14.82
2022-09-16T07:18:50.946Z,14.84
2022-09-16T07:19:32.244Z,14.78
2022-09-16T07:20:12.937Z,14.80
2022-09-16T07:20:53.046Z,14.81
2022-09-16T07:21:36.966Z,14.77
2022-09-16T07:22:17.018Z,14.79
2022-09-16T07:22:59.976Z,14.88
2022-09-16T07:23:42.088Z,14.83
2022-09-16T07:24:21.961Z,14.96
2022-09-16T07:25:02.063Z,14.94
2022-09-16T07:25:41.942Z,14.97
2022-09-16T07:26:28.036Z,14.91
2022-09-16T07:27:07.941Z,15.03
2022-09-16T07:27:48.303Z,15.05
2022-09-16T07:28:28.009Z,15.04
2022-09-16T07:29:14.076Z,14.92
2022-09-16T07:29:53.952Z,14.94
2022-09-16T07:30:34.381Z,15.00
2022-09-16T07:31:19.066Z,14.98
2022-09-16T07:32:00.465Z,14.99
2022-09-16T07:32:39.936Z,15.01
2022-09-16T07:33:20.008Z,14.80
2022-09-16T07:34:04.721Z,14.95
2022-09-16T07:34:44.993Z,15.02
2022-09-16T07:35:25.973Z,14.91
2022-09-16T07:36:07.110Z,14.92
2022-09-16T07:36:51.949Z,14.99
2022-09-16T07:37:32.121Z,14.91
2022-09-16T07:38:11.943Z,14.98
2022-09-16T07:38:53.148Z,14.90
2022-09-16T07:39:33.956Z,14.96
2022-09-16T07:40:14.112Z,14.93
2022-09-16T07:40:53.945Z,14.95
2022-09-16T07:41:38.050Z,15.05
2022-09-16T07:42:17.993Z,15.04
2022-09-16T07:42:58.010Z,15.09
2022-09-16T07:43:38.937Z,15.05
2022-09-16T07:44:22.062Z,15.12
2022-09-16T07:45:02.078Z,15.09
2022-09-16T07:45:43.024Z,15.13
2022-09-16T07:46:25.929Z,15.13
2022-09-16T07:47:06.667Z,15.16
2022-09-16T07:47:46.918Z,15.14
2022-09-16T07:48:30.116Z,15.19
2022-09-16T07:49:15.938Z,15.23
2022-09-16T07:49:56.167Z,15.23
2022-09-16T07:50:35.961Z,15.24
2022-09-16T07:51:25.993Z,15.20
2022-09-16T07:52:06.929Z,15.12
2022-09-16T07:52:46.995Z,15.20
2022-09-16T07:53:29.575Z,15.06
2022-09-16T07:54:15.104Z,15.11
2022-09-16T07:54:56.964Z,15.16
2022-09-16T07:55:43.993Z,15.24
2022-09-16T07:56:37.946Z,15.27
2022-09-16T07:57:31.936Z,15.27
2022-09-16T07:58:25.934Z,15.30
2022-09-16T07:59:23.961Z,15.23
2022-09-16T08:00:18.917Z,15.23
2022-09-16T08:01:06.989Z,15.31
2022-09-16T08:01:43.688Z,15.30
2022-09-16T08:02:30.965Z,15.27
2022-09-16T08:03:11.073Z,15.31
2022-09-16T08:03:52.951Z,15.40
2022-09-16T08:04:34.023Z,15.41
2022-09-16T08:05:15.907Z,15.36
2022-09-16T08:05:55.992Z,15.45
2022-09-16T08:06:38.932Z,15.36
2022-09-16T08:07:19.018Z,15.31
2022-09-16T08:07:58.927Z,15.34
2022-09-16T08:08:41.037Z,15.33
2022-09-16T08:09:38.515Z,15.41
2022-09-16T08:10:22.168Z,15.31
2022-09-16T08:11:02.926Z,15.27
2022-09-16T08:11:49.966Z,15.30
2022-09-16T08:12:23.618Z,15.45
2022-09-16T08:13:10.934Z,15.39
2022-09-16T08:13:46.236Z,15.38
2022-09-16T08:14:33.925Z,15.24
2022-09-16T08:15:08.689Z,15.28
2022-09-16T08:15:56.920Z,15.38
2022-09-16T08:16:32.987Z,15.38
2022-09-16T08:17:14.019Z,15.44
2022-09-16T08:17:48.085Z,15.51
2022-09-16T08:18:21.857Z,15.50
2022-09-16T08:19:03.931Z,15.57
2022-09-16T08:19:39.220Z,15.56
2022-09-16T08:20:12.682Z,15.51
2022-09-16T08:20:53.918Z,15.54
2022-09-16T08:21:34.007Z,15.66
2022-09-16T08:22:07.873Z,15.71
2022-09-16T08:22:47.949Z,15.72
2022-09-16T08:23:21.971Z,15.69
2022-09-16T08:23:56.899Z,15.61
2022-09-16T08:24:36.916Z,15.69
2022-09-16T08:25:10.984Z,15.71
2022-09-16T08:25:45.432Z,15.73
2022-09-16T08:26:25.893Z,15.72
2022-09-16T08:26:59.987Z,15.75
2022-09-16T08:27:36.676Z,15.71
2022-09-16T08:28:21.932Z,15.70
2022-09-16T08:29:08.269Z,15.71
2022-09-16T08:29:43.614Z,15.66
2022-09-16T08:30:23.991Z,15.57
2022-09-16T08:30:57.975Z,15.57
2022-09-16T08:31:31.720Z,15.54
2022-09-16T08:32:11.889Z,15.41
2022-09-16T08:32:45.957Z,15.49
2022-09-16T08:33:28.931Z,15.34
2022-09-16T08:34:09.967Z,15.33
2022-09-16T08:34:49.926Z,15.22
2022-09-16T08:35:30.965Z,15.26
2022-09-16T08:36:26.890Z,15.19
2022-09-16T08:37:07.973Z,15.16
2022-09-16T08:37:50.142Z,15.10
2022-09-16T08:38:36.941Z,15.16
2022-09-16T08:39:11.886Z,15.24
2022-09-16T08:40:01.062Z,15.18
2022-09-16T08:40:36.560Z,15.26
2022-09-16T08:42:01.884Z,15.25
2022-09-16T08:43:08.137Z,15.31
2022-09-16T08:44:38.962Z,15.39
2022-09-16T08:46:10.199Z,15.40
2022-09-16T08:47:09.897Z,15.42
2022-09-16T08:48:00.445Z,15.50
2022-09-16T08:49:05.113Z,15.53
2022-09-16T08:49:54.002Z,15.47
2022-09-16T08:50:41.940Z,15.34
2022-09-16T08:51:25.881Z,15.42
2022-09-16T08:52:37.950Z,15.36
2022-09-16T08:53:40.893Z,15.40
2022-09-16T08:54:46.013Z,15.44
2022-09-16T08:55:37.940Z,15.34
2022-09-16T08:56:24.981Z,15.32
2022-09-16T08:57:08.874Z,15.32
2022-09-16T08:58:03.973Z,15.26
2022-09-16T08:58:49.900Z,15.34
2022-09-16T08:59:33.971Z,15.34
2022-09-16T09:00:24.877Z,15.30
2022-09-16T09:01:11.015Z,15.29
2022-09-16T09:01:53.159Z,15.25
2022-09-16T09:03:32.869Z,15.44
2022-09-16T09:04:07.952Z,15.50
2022-09-16T09:04:54.858Z,15.42
2022-09-16T09:05:57.955Z,15.46
2022-09-16T09:06:40.919Z,15.52
2022-09-16T09:07:38.989Z,15.35
2022-09-16T09:08:42.878Z,15.59
2022-09-16T09:09:56.002Z,15.58
2022-09-16T09:10:59.867Z,15.60
2022-09-16T09:12:03.881Z,15.56
2022-09-16T09:13:21.724Z,15.63
2022-09-16T09:14:47.865Z,15.72
2022-09-16T09:15:58.910Z,15.66
2022-09-16T09:16:59.868Z,15.73
2022-09-16T09:18:08.184Z,15.77
2022-09-16T09:19:19.951Z,15.93
2022-09-16T09:20:47.900Z,15.99
2022-09-16T09:21:39.947Z,16.04
2022-09-16T09:22:55.901Z,15.91
2022-09-16T09:23:41.882Z,16.06
2022-09-16T09:24:24.913Z,16.14
2022-09-16T09:25:28.855Z,16.07
2022-09-16T09:26:55.039Z,16.04
2022-09-16T09:28:22.857Z,16.10
2022-09-16T09:29:11.925Z,15.97
2022-09-16T09:30:35.884Z,16.12
2022-09-16T09:32:15.828Z,16.22
2022-09-16T09:33:44.781Z,16.13
2022-09-16T09:35:07.878Z,16.22
2022-09-16T09:36:42.953Z,16.19
2022-09-16T09:38:11.849Z,16.12
2022-09-16T09:39:50.046Z,16.23
2022-09-16T09:40:58.880Z,16.19
2022-09-16T09:41:53.902Z,16.12
2022-09-16T09:43:17.838Z,16.13
2022-09-16T09:44:13.055Z,16.16
2022-09-16T09:45:14.829Z,16.13
2022-09-16T09:46:13.881Z,16.31
2022-09-16T09:47:12.839Z,16.29
2022-09-16T09:48:30.896Z,16.30
2022-09-16T09:49:50.831Z,16.35
2022-09-16T09:51:00.828Z,16.38
2022-09-16T09:52:06.998Z,16.23
2022-09-16T09:53:18.958Z,16.17
2022-09-16T09:54:06.915Z,16.27
2022-09-16T09:54:52.926Z,16.11
2022-09-16T09:55:38.834Z,16.15
2022-09-16T09:56:41.928Z,16.26
2022-09-16T09:57:48.840Z,16.23
2022-09-16T09:58:42.000Z,16.19
2022-09-16T09:59:56.025Z,16.22
2022-09-16T10:00:36.975Z,16.20
2022-09-16T10:01:17.878Z,16.29
2022-09-16T10:02:04.937Z,16.28
2022-09-16T10:02:50.023Z,16.30
2022-09-16T10:03:32.960Z,16.29
2022-09-16T10:04:23.801Z,16.35
2022-09-16T10:05:03.917Z,16.36
2022-09-16T10:05:44.816Z,16.33
2022-09-16T10:06:33.934Z,16.47
2022-09-16T10:07:14.816Z,16.45
2022-09-16T10:08:02.840Z,16.54
2022-09-16T10:09:02.859Z,16.54
2022-09-16T10:10:10.830Z,16.64
2022-09-16T10:11:13.793Z,16.68
2022-09-16T10:12:09.806Z,16.69
2022-09-16T10:13:04.839Z,16.60
2022-09-16T10:14:05.852Z,16.64
2022-09-16T10:14:59.805Z,16.80